sensor_id;sensor_type;location;lat;lon;timestamp;pressure;altitude;pressure_sealevel;temperature
29423;BMP180;16399;51.686;8.684;2022-10-16T00:02:52;99422.00;;;14.80
29423;BMP180;16399;51.686;8.684;2022-10-16T00:05:54;99425.00;;;14.80
29423;BMP180;16399;51.686;8.684;2022-10-16T00:08:58;99423.00;;;14.90
29423;BMP180;16399;51.686;8.684;2022-10-16T00:12:00;99418.00;;;14.90
29423;BMP180;16399;51.686;8.684;2022-10-16T00:15:05;99417.00;;;14.90
29423;BMP180;16399;51.686;8.684;2022-10-16T00:18:07;99409.00;;;14.90
29423;BMP180;16399;51.686;8.684;2022-10-16T00:21:15;99416.00;;;14.90
29423;BMP180;16399;51.686;8.684;2022-10-16T00:24:17;99410.00;;;14.90
29423;BMP180;16399;51.686;8.684;2022-10-16T00:27:20;99415.00;;;14.90
29423;BMP180;16399;51.686;8.684;2022-10-16T00:30:22;99410.00;;;14.90
29423;BMP180;16399;51.686;8.684;2022-10-16T00:33:25;99399.00;;;14.90
29423;BMP180;16399;51.686;8.684;2022-10-16T00:36:28;99402.00;;;14.90
29423;BMP180;16399;51.686;8.684;2022-10-16T00:39:30;99391.00;;;14.90
29423;BMP180;16399;51.686;8.684;2022-10-16T00:42:32;99406.00;;;14.80
29423;BMP180;16399;51.686;8.684;2022-10-16T00:45:35;99401.00;;;14.80
29423;BMP180;16399;51.686;8.684;2022-10-16T00:48:37;99405.00;;;14.70
29423;BMP180;16399;51.686;8.684;2022-10-16T00:51:49;99411.00;;;14.70
29423;BMP180;16399;51.686;8.684;2022-10-16T00:54:49;99409.00;;;14.60
29423;BMP180;16399;51.686;8.684;2022-10-16T00:57:52;99415.00;;;14.60
29423;BMP180;16399;51.686;8.684;2022-10-16T01:00:54;99406.00;;;14.50
29423;BMP180;16399;51.686;8.684;2022-10-16T01:03:57;99412.00;;;14.50
29423;BMP180;16399;51.686;8.684;2022-10-16T01:10:35;99424.00;;;14.40
29423;BMP180;16399;51.686;8.684;2022-10-16T01:13:40;99419.00;;;14.40
29423;BMP180;16399;51.686;8.684;2022-10-16T01:16:45;99421.00;;;14.30
29423;BMP180;16399;51.686;8.684;2022-10-16T01:20:00;99421.00;;;14.40
29423;BMP180;16399;51.686;8.684;2022-10-16T01:23:14;99420.00;;;14.30
29423;BMP180;16399;51.686;8.684;2022-10-16T01:29:25;99423.00;;;14.30
29423;BMP180;16399;51.686;8.684;2022-10-16T01:32:33;99420.00;;;14.30
29423;BMP180;16399;51.686;8.684;2022-10-16T01:35:41;99425.00;;;14.30
29423;BMP180;16399;51.686;8.684;2022-10-16T01:38:45;99427.00;;;14.30
29423;BMP180;16399;51.686;8.684;2022-10-16T01:42:02;99428.00;;;14.30
29423;BMP180;16399;51.686;8.684;2022-10-16T01:45:00;99429.00;;;14.30
29423;BMP180;16399;51.686;8.684;2022-10-16T01:48:06;99444.00;;;14.30
29423;BMP180;16399;51.686;8.684;2022-10-16T01:51:12;99439.00;;;14.30
29423;BMP180;16399;51.686;8.684;2022-10-16T01:54:16;99443.00;;;14.30
29423;BMP180;16399;51.686;8.684;2022-10-16T01:57:21;99440.00;;;14.30
29423;BMP180;16399;51.686;8.684;2022-10-16T02:00:27;99442.00;;;14.30
29423;BMP180;16399;51.686;8.684;2022-10-16T02:03:32;99445.00;;;14.30
29423;BMP180;16399;51.686;8.684;2022-10-16T02:06:34;99457.00;;;14.40
29423;BMP180;16399;51.686;8.684;2022-10-16T02:09:37;99456.00;;;14.40
29423;BMP180;16399;51.686;8.684;2022-10-16T02:12:43;99458.00;;;14.50
29423;BMP180;16399;51.686;8.684;2022-10-16T02:15:45;99462.00;;;14.50
29423;BMP180;16399;51.686;8.684;2022-10-16T02:18:48;99456.00;;;14.50
29423;BMP180;16399;51.686;8.684;2022-10-16T02:21:56;99460.00;;;14.50
29423;BMP180;16399;51.686;8.684;2022-10-16T02:25:03;99450.00;;;14.50
29423;BMP180;16399;51.686;8.684;2022-10-16T02:28:13;99445.00;;;14.50
29423;BMP180;16399;51.686;8.684;2022-10-16T02:31:18;99446.00;;;14.50
29423;BMP180;16399;51.686;8.684;2022-10-16T02:34:21;99437.00;;;14.50
29423;BMP180;16399;51.686;8.684;2022-10-16T02:37:25;99447.00;;;14.50
29423;BMP180;16399;51.686;8.684;2022-10-16T02:40:28;99451.00;;;14.50
29423;BMP180;16399;51.686;8.684;2022-10-16T02:43:30;99446.00;;;14.50
29423;BMP180;16399;51.686;8.684;2022-10-16T02:46:34;99453.00;;;14.50
29423;BMP180;16399;51.686;8.684;2022-10-16T02:49:36;99448.00;;;14.50
29423;BMP180;16399;51.686;8.684;2022-10-16T02:52:39;99451.00;;;14.50
29423;BMP180;16399;51.686;8.684;2022-10-16T02:55:41;99449.00;;;14.50
29423;BMP180;16399;51.686;8.684;2022-10-16T02:58:44;99463.00;;;14.40
29423;BMP180;16399;51.686;8.684;2022-10-16T03:01:46;99463.00;;;14.40
29423;BMP180;16399;51.686;8.684;2022-10-16T03:04:48;99463.00;;;14.40
29423;BMP180;16399;51.686;8.684;2022-10-16T03:07:51;99455.00;;;14.40
29423;BMP180;16399;51.686;8.684;2022-10-16T03:10:53;99449.00;;;14.30
29423;BMP180;16399;51.686;8.684;2022-10-16T03:13:56;99450.00;;;14.30
29423;BMP180;16399;51.686;8.684;2022-10-16T03:16:58;99450.00;;;14.30
29423;BMP180;16399;51.686;8.684;2022-10-16T03:20:00;99455.00;;;14.30
29423;BMP180;16399;51.686;8.684;2022-10-16T03:23:03;99444.00;;;14.30
29423;BMP180;16399;51.686;8.684;2022-10-16T03:26:05;99453.00;;;14.30
29423;BMP180;16399;51.686;8.684;2022-10-16T03:29:08;99447.00;;;14.30
29423;BMP180;16399;51.686;8.684;2022-10-16T03:32:10;99453.00;;;14.30
29423;BMP180;16399;51.686;8.684;2022-10-16T03:35:13;99463.00;;;14.30
29423;BMP180;16399;51.686;8.684;2022-10-16T03:38:15;99468.00;;;14.30
29423;BMP180;16399;51.686;8.684;2022-10-16T03:41:17;99468.00;;;14.30
29423;BMP180;16399;51.686;8.684;2022-10-16T03:44:19;99473.00;;;14.30
29423;BMP180;16399;51.686;8.684;2022-10-16T03:47:22;99476.00;;;14.30
29423;BMP180;16399;51.686;8.684;2022-10-16T03:50:25;99461.00;;;14.30
29423;BMP180;16399;51.686;8.684;2022-10-16T03:53:27;99467.00;;;14.30
29423;BMP180;16399;51.686;8.684;2022-10-16T03:56:29;99473.00;;;14.20
29423;BMP180;16399;51.686;8.684;2022-10-16T03:59:32;99470.00;;;14.20
29423;BMP180;16399;51.686;8.684;2022-10-16T04:02:34;99472.00;;;14.20
29423;BMP180;16399;51.686;8.684;2022-10-16T04:05:36;99463.00;;;14.30
29423;BMP180;16399;51.686;8.684;2022-10-16T04:08:39;99456.00;;;14.30
29423;BMP180;16399;51.686;8.684;2022-10-16T04:11:43;99456.00;;;14.30
29423;BMP180;16399;51.686;8.684;2022-10-16T04:14:45;99447.00;;;14.30
29423;BMP180;16399;51.686;8.684;2022-10-16T04:17:47;99451.00;;;14.30
29423;BMP180;16399;51.686;8.684;2022-10-16T04:20:49;99455.00;;;14.30
29423;BMP180;16399;51.686;8.684;2022-10-16T04:23:52;99470.00;;;14.30
29423;BMP180;16399;51.686;8.684;2022-10-16T04:26:54;99465.00;;;14.30
29423;BMP180;16399;51.686;8.684;2022-10-16T04:29:57;99465.00;;;14.40
29423;BMP180;16399;51.686;8.684;2022-10-16T04:32:59;99472.00;;;14.40
29423;BMP180;16399;51.686;8.684;2022-10-16T04:36:02;99496.00;;;14.40
29423;BMP180;16399;51.686;8.684;2022-10-16T04:39:05;99482.00;;;14.40
29423;BMP180;16399;51.686;8.684;2022-10-16T04:42:07;99480.00;;;14.40
29423;BMP180;16399;51.686;8.684;2022-10-16T04:45:10;99476.00;;;14.50
29423;BMP180;16399;51.686;8.684;2022-10-16T04:48:12;99474.00;;;14.50
29423;BMP180;16399;51.686;8.684;2022-10-16T04:51:14;99469.00;;;14.50
29423;BMP180;16399;51.686;8.684;2022-10-16T04:54:17;99494.00;;;14.50
29423;BMP180;16399;51.686;8.684;2022-10-16T04:57:19;99499.00;;;14.60
29423;BMP180;16399;51.686;8.684;2022-10-16T05:00:21;99509.00;;;14.60
29423;BMP180;16399;51.686;8.684;2022-10-16T05:03:24;99511.00;;;14.60
29423;BMP180;16399;51.686;8.684;2022-10-16T05:06:26;99500.00;;;14.70
29423;BMP180;16399;51.686;8.684;2022-10-16T05:09:28;99502.00;;;14.70
29423;BMP180;16399;51.686;8.684;2022-10-16T05:12:31;99513.00;;;14.70
29423;BMP180;16399;51.686;8.684;2022-10-16T05:15:33;99502.00;;;14.70
29423;BMP180;16399;51.686;8.684;2022-10-16T05:18:35;99504.00;;;14.70
29423;BMP180;16399;51.686;8.684;2022-10-16T05:21:37;99522.00;;;14.60
29423;BMP180;16399;51.686;8.684;2022-10-16T05:24:40;99523.00;;;14.60
29423;BMP180;16399;51.686;8.684;2022-10-16T05:27:42;99537.00;;;14.60
29423;BMP180;16399;51.686;8.684;2022-10-16T05:30:44;99522.00;;;14.50
29423;BMP180;16399;51.686;8.684;2022-10-16T05:33:47;99524.00;;;14.50
29423;BMP180;16399;51.686;8.684;2022-10-16T05:36:50;99513.00;;;14.50
29423;BMP180;16399;51.686;8.684;2022-10-16T05:39:52;99521.00;;;14.50
29423;BMP180;16399;51.686;8.684;2022-10-16T05:42:57;99526.00;;;14.50
29423;BMP180;16399;51.686;8.684;2022-10-16T05:46:04;99533.00;;;14.40
29423;BMP180;16399;51.686;8.684;2022-10-16T05:49:07;99538.00;;;14.40
29423;BMP180;16399;51.686;8.684;2022-10-16T05:52:09;99541.00;;;14.30
29423;BMP180;16399;51.686;8.684;2022-10-16T05:55:12;99545.00;;;14.30
29423;BMP180;16399;51.686;8.684;2022-10-16T05:58:14;99548.00;;;14.30
29423;BMP180;16399;51.686;8.684;2022-10-16T06:01:18;99549.00;;;14.30
29423;BMP180;16399;51.686;8.684;2022-10-16T06:04:22;99569.00;;;14.30
29423;BMP180;16399;51.686;8.684;2022-10-16T06:07:24;99582.00;;;14.30
29423;BMP180;16399;51.686;8.684;2022-10-16T06:10:26;99574.00;;;14.30
29423;BMP180;16399;51.686;8.684;2022-10-16T06:13:30;99574.00;;;14.40
29423;BMP180;16399;51.686;8.684;2022-10-16T06:16:36;99589.00;;;14.40
29423;BMP180;16399;51.686;8.684;2022-10-16T06:19:38;99586.00;;;14.40
29423;BMP180;16399;51.686;8.684;2022-10-16T06:22:41;99606.00;;;14.50
29423;BMP180;16399;51.686;8.684;2022-10-16T06:25:43;99573.00;;;14.50
29423;BMP180;16399;51.686;8.684;2022-10-16T06:28:46;99581.00;;;14.60
29423;BMP180;16399;51.686;8.684;2022-10-16T06:31:48;99591.00;;;14.60
29423;BMP180;16399;51.686;8.684;2022-10-16T06:34:50;99604.00;;;14.60
29423;BMP180;16399;51.686;8.684;2022-10-16T06:37:55;99605.00;;;14.70
29423;BMP180;16399;51.686;8.684;2022-10-16T06:40:58;99608.00;;;14.70
29423;BMP180;16399;51.686;8.684;2022-10-16T06:44:01;99609.00;;;14.80
29423;BMP180;16399;51.686;8.684;2022-10-16T06:47:03;99616.00;;;14.90
29423;BMP180;16399;51.686;8.684;2022-10-16T06:50:06;99617.00;;;15.00
29423;BMP180;16399;51.686;8.684;2022-10-16T06:53:08;99617.00;;;15.00
29423;BMP180;16399;51.686;8.684;2022-10-16T06:56:31;99646.00;;;15.10
29423;BMP180;16399;51.686;8.684;2022-10-16T06:59:18;99639.00;;;15.10
29423;BMP180;16399;51.686;8.684;2022-10-16T07:02:21;99637.00;;;15.10
29423;BMP180;16399;51.686;8.684;2022-10-16T07:05:23;99649.00;;;15.10
29423;BMP180;16399;51.686;8.684;2022-10-16T07:08:25;99650.00;;;15.20
29423;BMP180;16399;51.686;8.684;2022-10-16T07:11:27;99646.00;;;15.30
29423;BMP180;16399;51.686;8.684;2022-10-16T07:14:30;99649.00;;;15.40
29423;BMP180;16399;51.686;8.684;2022-10-16T07:17:32;99652.00;;;15.50
29423;BMP180;16399;51.686;8.684;2022-10-16T07:20:35;99663.00;;;15.50
29423;BMP180;16399;51.686;8.684;2022-10-16T07:23:39;99669.00;;;15.60
29423;BMP180;16399;51.686;8.684;2022-10-16T07:26:43;99670.00;;;15.60
29423;BMP180;16399;51.686;8.684;2022-10-16T07:29:46;99664.00;;;15.60
29423;BMP180;16399;51.686;8.684;2022-10-16T07:32:48;99665.00;;;15.70
29423;BMP180;16399;51.686;8.684;2022-10-16T07:35:52;99668.00;;;15.70
29423;BMP180;16399;51.686;8.684;2022-10-16T07:38:55;99679.00;;;15.90
29423;BMP180;16399;51.686;8.684;2022-10-16T07:41:57;99700.00;;;16.00
29423;BMP180;16399;51.686;8.684;2022-10-16T07:44:59;99709.00;;;16.10
29423;BMP180;16399;51.686;8.684;2022-10-16T07:48:01;99704.00;;;16.20
29423;BMP180;16399;51.686;8.684;2022-10-16T07:51:06;99700.00;;;16.30
29423;BMP180;16399;51.686;8.684;2022-10-16T07:54:09;99715.00;;;16.30
29423;BMP180;16399;51.686;8.684;2022-10-16T07:57:12;99710.00;;;16.30
29423;BMP180;16399;51.686;8.684;2022-10-16T08:00:16;99725.00;;;16.40
29423;BMP180;16399;51.686;8.684;2022-10-16T08:03:18;99716.00;;;16.50
29423;BMP180;16399;51.686;8.684;2022-10-16T08:06:21;99724.00;;;16.60
29423;BMP180;16399;51.686;8.684;2022-10-16T08:09:24;99719.00;;;16.70
29423;BMP180;16399;51.686;8.684;2022-10-16T08:12:26;99721.00;;;16.90
29423;BMP180;16399;51.686;8.684;2022-10-16T08:15:28;99718.00;;;17.10
29423;BMP180;16399;51.686;8.684;2022-10-16T08:18:31;99714.00;;;17.40
29423;BMP180;16399;51.686;8.684;2022-10-16T08:21:33;99723.00;;;17.50
29423;BMP180;16399;51.686;8.684;2022-10-16T08:24:36;99722.00;;;17.60
29423;BMP180;16399;51.686;8.684;2022-10-16T08:27:38;99732.00;;;17.60
29423;BMP180;16399;51.686;8.684;2022-10-16T08:30:40;99725.00;;;17.50
29423;BMP180;16399;51.686;8.684;2022-10-16T08:33:44;99729.00;;;17.60
29423;BMP180;16399;51.686;8.684;2022-10-16T08:36:48;99737.00;;;17.70
29423;BMP180;16399;51.686;8.684;2022-10-16T08:39:50;99750.00;;;17.80
29423;BMP180;16399;51.686;8.684;2022-10-16T08:43:11;99749.00;;;17.80
29423;BMP180;16399;51.686;8.684;2022-10-16T08:49:24;99752.00;;;17.90
29423;BMP180;16399;51.686;8.684;2022-10-16T08:52:29;99770.00;;;18.10
29423;BMP180;16399;51.686;8.684;2022-10-16T08:55:37;99764.00;;;18.30
29423;BMP180;16399;51.686;8.684;2022-10-16T08:58:37;99756.00;;;18.20
29423;BMP180;16399;51.686;8.684;2022-10-16T09:01:43;99770.00;;;18.10
29423;BMP180;16399;51.686;8.684;2022-10-16T09:08:09;99788.00;;;18.20
29423;BMP180;16399;51.686;8.684;2022-10-16T09:17:44;99795.00;;;18.30
29423;BMP180;16399;51.686;8.684;2022-10-16T09:21:10;99804.00;;;18.40
29423;BMP180;16399;51.686;8.684;2022-10-16T09:24:17;99798.00;;;18.70
29423;BMP180;16399;51.686;8.684;2022-10-16T09:27:20;99795.00;;;18.70
29423;BMP180;16399;51.686;8.684;2022-10-16T09:30:22;99806.00;;;18.90
29423;BMP180;16399;51.686;8.684;2022-10-16T09:33:33;99819.00;;;18.80
29423;BMP180;16399;51.686;8.684;2022-10-16T09:36:39;99804.00;;;18.80
29423;BMP180;16399;51.686;8.684;2022-10-16T09:39:46;99824.00;;;19.00
29423;BMP180;16399;51.686;8.684;2022-10-16T09:42:57;99803.00;;;19.00
29423;BMP180;16399;51.686;8.684;2022-10-16T09:45:57;99808.00;;;18.90
29423;BMP180;16399;51.686;8.684;2022-10-16T09:49:24;99821.00;;;18.90
29423;BMP180;16399;51.686;8.684;2022-10-16T09:52:26;99823.00;;;18.90
29423;BMP180;16399;51.686;8.684;2022-10-16T09:55:29;99819.00;;;18.90
29423;BMP180;16399;51.686;8.684;2022-10-16T09:58:32;99828.00;;;19.00
29423;BMP180;16399;51.686;8.684;2022-10-16T10:01:43;99809.00;;;19.20
29423;BMP180;16399;51.686;8.684;2022-10-16T10:04:53;99829.00;;;19.30
29423;BMP180;16399;51.686;8.684;2022-10-16T10:08:05;99826.00;;;19.50
29423;BMP180;16399;51.686;8.684;2022-10-16T10:11:05;99828.00;;;19.60
29423;BMP180;16399;51.686;8.684;2022-10-16T10:14:28;99820.00;;;19.70
29423;BMP180;16399;51.686;8.684;2022-10-16T10:17:31;99847.00;;;19.80
29423;BMP180;16399;51.686;8.684;2022-10-16T10:20:35;99844.00;;;19.70
29423;BMP180;16399;51.686;8.684;2022-10-16T10:23:39;99852.00;;;19.60
29423;BMP180;16399;51.686;8.684;2022-10-16T10:27:01;99859.00;;;19.50
29423;BMP180;16399;51.686;8.684;2022-10-16T10:30:09;99853.00;;;19.20
29423;BMP180;16399;51.686;8.684;2022-10-16T10:33:19;99855.00;;;19.10
29423;BMP180;16399;51.686;8.684;2022-10-16T10:36:25;99859.00;;;19.20
29423;BMP180;16399;51.686;8.684;2022-10-16T10:39:31;99857.00;;;19.30
29423;BMP180;16399;51.686;8.684;2022-10-16T10:42:40;99857.00;;;19.50
29423;BMP180;16399;51.686;8.684;2022-10-16T10:45:42;99851.00;;;19.80
29423;BMP180;16399;51.686;8.684;2022-10-16T10:49:00;99856.00;;;20.00
29423;BMP180;16399;51.686;8.684;2022-10-16T11:02:15;99857.00;;;20.30
29423;BMP180;16399;51.686;8.684;2022-10-16T11:05:43;99862.00;;;20.10
29423;BMP180;16399;51.686;8.684;2022-10-16T11:08:35;99882.00;;;20.00
29423;BMP180;16399;51.686;8.684;2022-10-16T11:11:36;99873.00;;;19.90
29423;BMP180;16399;51.686;8.684;2022-10-16T11:18:08;99883.00;;;20.10
29423;BMP180;16399;51.686;8.684;2022-10-16T11:21:13;99874.00;;;20.20
29423;BMP180;16399;51.686;8.684;2022-10-16T11:24:35;99867.00;;;20.30
29423;BMP180;16399;51.686;8.684;2022-10-16T11:27:38;99865.00;;;20.40
29423;BMP180;16399;51.686;8.684;2022-10-16T11:30:59;99862.00;;;20.60
29423;BMP180;16399;51.686;8.684;2022-10-16T11:37:38;99858.00;;;20.70
29423;BMP180;16399;51.686;8.684;2022-10-16T11:40:37;99877.00;;;20.80
29423;BMP180;16399;51.686;8.684;2022-10-16T11:43:46;99881.00;;;20.70
29423;BMP180;16399;51.686;8.684;2022-10-16T11:47:08;99877.00;;;20.40
29423;BMP180;16399;51.686;8.684;2022-10-16T11:50:09;99884.00;;;20.20
29423;BMP180;16399;51.686;8.684;2022-10-16T11:56:16;99865.00;;;20.10
29423;BMP180;16399;51.686;8.684;2022-10-16T12:03:20;99874.00;;;20.40
29423;BMP180;16399;51.686;8.684;2022-10-16T12:09:30;99881.00;;;20.70
29423;BMP180;16399;51.686;8.684;2022-10-16T12:12:39;99879.00;;;20.80
29423;BMP180;16399;51.686;8.684;2022-10-16T12:15:42;99891.00;;;20.80
29423;BMP180;16399;51.686;8.684;2022-10-16T12:18:45;99895.00;;;20.70
29423;BMP180;16399;51.686;8.684;2022-10-16T12:21:49;99888.00;;;20.60
29423;BMP180;16399;51.686;8.684;2022-10-16T12:24:52;99889.00;;;20.60
29423;BMP180;16399;51.686;8.684;2022-10-16T12:27:56;99876.00;;;20.60
29423;BMP180;16399;51.686;8.684;2022-10-16T12:31:01;99878.00;;;20.60
29423;BMP180;16399;51.686;8.684;2022-10-16T12:34:04;99882.00;;;20.70
29423;BMP180;16399;51.686;8.684;2022-10-16T12:37:23;99886.00;;;20.80
29423;BMP180;16399;51.686;8.684;2022-10-16T12:40:29;99888.00;;;20.90
29423;BMP180;16399;51.686;8.684;2022-10-16T12:43:38;99893.00;;;20.90
29423;BMP180;16399;51.686;8.684;2022-10-16T12:46:40;99893.00;;;20.90
29423;BMP180;16399;51.686;8.684;2022-10-16T12:49:48;99908.00;;;20.80
29423;BMP180;16399;51.686;8.684;2022-10-16T12:52:48;99898.00;;;20.70
29423;BMP180;16399;51.686;8.684;2022-10-16T12:55:55;99913.00;;;20.60
29423;BMP180;16399;51.686;8.684;2022-10-16T12:59:09;99913.00;;;20.50
29423;BMP180;16399;51.686;8.684;2022-10-16T13:02:39;99907.00;;;20.30
29423;BMP180;16399;51.686;8.684;2022-10-16T13:09:27;99923.00;;;20.10
29423;BMP180;16399;51.686;8.684;2022-10-16T13:16:17;99935.00;;;19.70
29423;BMP180;16399;51.686;8.684;2022-10-16T13:22:37;99949.00;;;19.60
29423;BMP180;16399;51.686;8.684;2022-10-16T13:28:46;99956.00;;;19.50
29423;BMP180;16399;51.686;8.684;2022-10-16T13:31:48;99943.00;;;19.50
29423;BMP180;16399;51.686;8.684;2022-10-16T13:34:51;99947.00;;;19.50
29423;BMP180;16399;51.686;8.684;2022-10-16T13:38:14;99945.00;;;19.50
29423;BMP180;16399;51.686;8.684;2022-10-16T13:41:18;99952.00;;;19.50
29423;BMP180;16399;51.686;8.684;2022-10-16T13:44:21;99956.00;;;19.50
29423;BMP180;16399;51.686;8.684;2022-10-16T13:47:30;99959.00;;;19.60
29423;BMP180;16399;51.686;8.684;2022-10-16T13:50:28;99956.00;;;19.60
29423;BMP180;16399;51.686;8.684;2022-10-16T13:53:35;99953.00;;;19.50
29423;BMP180;16399;51.686;8.684;2022-10-16T13:56:39;99955.00;;;19.50
29423;BMP180;16399;51.686;8.684;2022-10-16T13:59:42;99961.00;;;19.50
29423;BMP180;16399;51.686;8.684;2022-10-16T14:02:45;99968.00;;;19.40
29423;BMP180;16399;51.686;8.684;2022-10-16T14:05:54;99964.00;;;19.30
29423;BMP180;16399;51.686;8.684;2022-10-16T14:09:08;99968.00;;;19.30
29423;BMP180;16399;51.686;8.684;2022-10-16T14:12:11;99966.00;;;19.40
29423;BMP180;16399;51.686;8.684;2022-10-16T14:15:18;99974.00;;;19.40
29423;BMP180;16399;51.686;8.684;2022-10-16T14:18:23;99971.00;;;19.30
29423;BMP180;16399;51.686;8.684;2022-10-16T14:21:26;99953.00;;;19.40
29423;BMP180;16399;51.686;8.684;2022-10-16T14:24:33;99977.00;;;19.40
29423;BMP180;16399;51.686;8.684;2022-10-16T14:27:37;99979.00;;;19.30
29423;BMP180;16399;51.686;8.684;2022-10-16T14:30:59;99975.00;;;19.40
29423;BMP180;16399;51.686;8.684;2022-10-16T14:34:02;99974.00;;;19.30
29423;BMP180;16399;51.686;8.684;2022-10-16T14:37:26;99982.00;;;19.40
29423;BMP180;16399;51.686;8.684;2022-10-16T14:40:36;99972.00;;;19.30
29423;BMP180;16399;51.686;8.684;2022-10-16T14:43:41;99968.00;;;19.20
29423;BMP180;16399;51.686;8.684;2022-10-16T14:46:44;99963.00;;;19.20
29423;BMP180;16399;51.686;8.684;2022-10-16T14:49:47;99959.00;;;19.10
29423;BMP180;16399;51.686;8.684;2022-10-16T14:52:49;99963.00;;;19.00
29423;BMP180;16399;51.686;8.684;2022-10-16T14:55:52;99956.00;;;19.00
29423;BMP180;16399;51.686;8.684;2022-10-16T14:58:55;99961.00;;;18.90
29423;BMP180;16399;51.686;8.684;2022-10-16T15:01:58;99968.00;;;18.80
29423;BMP180;16399;51.686;8.684;2022-10-16T15:05:20;99979.00;;;18.70
29423;BMP180;16399;51.686;8.684;2022-10-16T15:08:27;99975.00;;;18.50
29423;BMP180;16399;51.686;8.684;2022-10-16T15:11:29;99979.00;;;18.30
29423;BMP180;16399;51.686;8.684;2022-10-16T15:14:33;99971.00;;;18.20
29423;BMP180;16399;51.686;8.684;2022-10-16T15:17:35;99971.00;;;18.20
29423;BMP180;16399;51.686;8.684;2022-10-16T15:20:38;99987.00;;;18.20
29423;BMP180;16399;51.686;8.684;2022-10-16T15:23:41;99993.00;;;18.10
29423;BMP180;16399;51.686;8.684;2022-10-16T15:26:43;100004.00;;;18.20
29423;BMP180;16399;51.686;8.684;2022-10-16T15:29:47;100005.00;;;18.20
29423;BMP180;16399;51.686;8.684;2022-10-16T15:32:49;100001.00;;;18.20
29423;BMP180;16399;51.686;8.684;2022-10-16T15:35:52;99999.00;;;18.10
29423;BMP180;16399;51.686;8.684;2022-10-16T15:38:56;99988.00;;;18.00
29423;BMP180;16399;51.686;8.684;2022-10-16T15:41:58;99994.00;;;18.00
29423;BMP180;16399;51.686;8.684;2022-10-16T15:45:01;100000.00;;;18.00
29423;BMP180;16399;51.686;8.684;2022-10-16T15:48:04;100002.00;;;17.90
29423;BMP180;16399;51.686;8.684;2022-10-16T15:51:07;100006.00;;;17.80
29423;BMP180;16399;51.686;8.684;2022-10-16T15:54:10;100006.00;;;17.80
29423;BMP180;16399;51.686;8.684;2022-10-16T15:57:12;100008.00;;;17.70
29423;BMP180;16399;51.686;8.684;2022-10-16T16:00:19;100008.00;;;17.70
29423;BMP180;16399;51.686;8.684;2022-10-16T16:03:26;99994.00;;;17.60
29423;BMP180;16399;51.686;8.684;2022-10-16T16:06:28;99994.00;;;17.50
29423;BMP180;16399;51.686;8.684;2022-10-16T16:09:31;99986.00;;;17.40
29423;BMP180;16399;51.686;8.684;2022-10-16T16:12:33;99993.00;;;17.40
29423;BMP180;16399;51.686;8.684;2022-10-16T16:15:40;100001.00;;;17.30
29423;BMP180;16399;51.686;8.684;2022-10-16T16:18:43;100007.00;;;17.10
29423;BMP180;16399;51.686;8.684;2022-10-16T16:21:46;100003.00;;;17.10
29423;BMP180;16399;51.686;8.684;2022-10-16T16:24:48;100009.00;;;17.00
29423;BMP180;16399;51.686;8.684;2022-10-16T16:27:51;100010.00;;;16.90
29423;BMP180;16399;51.686;8.684;2022-10-16T16:30:53;100017.00;;;16.80
29423;BMP180;16399;51.686;8.684;2022-10-16T16:33:56;100035.00;;;16.70
29423;BMP180;16399;51.686;8.684;2022-10-16T16:36:59;100030.00;;;16.60
29423;BMP180;16399;51.686;8.684;2022-10-16T16:40:01;100040.00;;;16.60
29423;BMP180;16399;51.686;8.684;2022-10-16T16:43:03;100027.00;;;16.50
29423;BMP180;16399;51.686;8.684;2022-10-16T16:46:06;100040.00;;;16.50
29423;BMP180;16399;51.686;8.684;2022-10-16T16:49:13;100045.00;;;16.50
29423;BMP180;16399;51.686;8.684;2022-10-16T16:52:14;100038.00;;;16.40
29423;BMP180;16399;51.686;8.684;2022-10-16T16:55:16;100045.00;;;16.40
29423;BMP180;16399;51.686;8.684;2022-10-16T16:58:19;100043.00;;;16.30
29423;BMP180;16399;51.686;8.684;2022-10-16T17:01:23;100040.00;;;16.30
29423;BMP180;16399;51.686;8.684;2022-10-16T17:04:25;100043.00;;;16.30
29423;BMP180;16399;51.686;8.684;2022-10-16T17:07:30;100047.00;;;16.30
29423;BMP180;16399;51.686;8.684;2022-10-16T17:10:42;100065.00;;;16.20
29423;BMP180;16399;51.686;8.684;2022-10-16T17:13:40;100066.00;;;16.20
29423;BMP180;16399;51.686;8.684;2022-10-16T17:16:42;100059.00;;;16.20
29423;BMP180;16399;51.686;8.684;2022-10-16T17:19:45;100053.00;;;16.10
29423;BMP180;16399;51.686;8.684;2022-10-16T17:22:47;100050.00;;;16.10
29423;BMP180;16399;51.686;8.684;2022-10-16T17:25:49;100066.00;;;16.00
29423;BMP180;16399;51.686;8.684;2022-10-16T17:28:57;100062.00;;;16.00
29423;BMP180;16399;51.686;8.684;2022-10-16T17:32:00;100062.00;;;16.00
29423;BMP180;16399;51.686;8.684;2022-10-16T17:35:02;100070.00;;;16.00
29423;BMP180;16399;51.686;8.684;2022-10-16T17:38:05;100073.00;;;16.00
29423;BMP180;16399;51.686;8.684;2022-10-16T17:44:15;100092.00;;;15.90
29423;BMP180;16399;51.686;8.684;2022-10-16T17:47:20;100066.00;;;15.90
29423;BMP180;16399;51.686;8.684;2022-10-16T17:50:22;100059.00;;;15.90
29423;BMP180;16399;51.686;8.684;2022-10-16T17:53:25;100068.00;;;15.90
29423;BMP180;16399;51.686;8.684;2022-10-16T17:56:28;100077.00;;;15.90
29423;BMP180;16399;51.686;8.684;2022-10-16T17:59:30;100090.00;;;15.90
29423;BMP180;16399;51.686;8.684;2022-10-16T18:02:33;100102.00;;;15.90
29423;BMP180;16399;51.686;8.684;2022-10-16T18:05:37;100096.00;;;15.80
29423;BMP180;16399;51.686;8.684;2022-10-16T18:08:39;100094.00;;;15.80
29423;BMP180;16399;51.686;8.684;2022-10-16T18:11:41;100094.00;;;15.80
29423;BMP180;16399;51.686;8.684;2022-10-16T18:14:44;100086.00;;;15.80
29423;BMP180;16399;51.686;8.684;2022-10-16T18:17:46;100095.00;;;15.70
29423;BMP180;16399;51.686;8.684;2022-10-16T18:20:56;100098.00;;;15.70
29423;BMP180;16399;51.686;8.684;2022-10-16T18:23:59;100101.00;;;15.70
29423;BMP180;16399;51.686;8.684;2022-10-16T18:27:01;100101.00;;;15.70
29423;BMP180;16399;51.686;8.684;2022-10-16T18:30:04;100101.00;;;15.60
29423;BMP180;16399;51.686;8.684;2022-10-16T18:33:07;100107.00;;;15.60
29423;BMP180;16399;51.686;8.684;2022-10-16T18:36:10;100111.00;;;15.60
29423;BMP180;16399;51.686;8.684;2022-10-16T18:39:13;100110.00;;;15.50
29423;BMP180;16399;51.686;8.684;2022-10-16T18:42:18;100105.00;;;15.50
29423;BMP180;16399;51.686;8.684;2022-10-16T18:45:20;100093.00;;;15.50